Time;durP1;ratioP1;P1;durP2;ratioP2;P2;SDS_P1;SDS_P2;PMS_P1;PMS_P2;Temp;Humidity;BMP_temperature;BMP_pressure;BME280_temperature;BME280_humidity;BME280_pressure;Samples;Min_cycle;Max_cycle;Signal;HPM_P1;HPM_P2
2022/01/27 00:02:07;;;;;;;4.07;2.17;;;;;;;-6.36;90.12;92869.22;5019836;28;20557;-74
2022/01/27 00:04:37;;;;;;;2.87;2.77;;;;;;;-6.55;91.36;92863.06;5035114;28;20291;-74
2022/01/27 00:07:05;;;;;;;2.30;2.20;;;;;;;-6.62;91.66;92868.63;5035849;28;20570;-74
2022/01/27 00:09:46;;;;;;;5.60;2.67;;;;;;;-6.66;92.04;92873.41;5035543;28;20625;-74
2022/01/27 00:12:17;;;;;;;3.43;3.27;;;;;;;-6.77;92.16;92858.41;5035523;28;20234;-74
2022/01/27 00:14:52;;;;;;;2.07;2.07;;;;;;;-6.74;91.98;92871.59;5034900;28;20574;-74
2022/01/27 00:17:28;;;;;;;3.07;2.97;;;;;;;-6.67;91.82;92872.59;5035145;28;20205;-74
2022/01/27 00:19:55;;;;;;;2.00;2.00;;;;;;;-6.72;92.63;92866.72;5035029;28;20572;-74
2022/01/27 00:22:22;;;;;;;2.73;2.63;;;;;;;-6.53;91.13;92872.91;5015112;28;20277;-74
2022/01/27 00:24:51;;;;;;;1.83;1.83;;;;;;;-6.72;92.18;92859.38;5015411;28;20545;-74
2022/01/27 00:27:18;;;;;;;1.77;1.53;;;;;;;-6.56;91.74;92870.38;5015314;28;20646;-74
2022/01/27 00:29:45;;;;;;;3.13;2.97;;;;;;;-6.62;92.39;92865.31;5015910;28;20550;-74
2022/01/27 00:32:12;;;;;;;4.23;2.77;;;;;;;-6.72;92.08;92859.38;5017010;28;20225;-74
2022/01/27 00:34:40;;;;;;;1.93;1.83;;;;;;;-6.90;91.90;92857.28;5019171;28;20516;-75
2022/01/27 00:37:07;;;;;;;1.70;1.67;;;;;;;-6.91;91.87;92858.06;5018996;28;20625;-74
2022/01/27 00:39:34;;;;;;;2.00;1.90;;;;;;;-6.71;89.92;92865.94;5018896;28;20663;-75
2022/01/27 00:42:02;;;;;;;9.10;1.97;;;;;;;-6.84;91.84;92863.97;5018304;28;20607;-74
2022/01/27 00:44:30;;;;;;;2.10;1.90;;;;;;;-6.89;93.12;92866.31;5018587;28;20346;-74
2022/01/27 00:46:57;;;;;;;1.10;1.10;;;;;;;-7.07;94.02;92843.75;5018614;28;20571;-74
2022/01/27 00:49:25;;;;;;;1.90;1.90;;;;;;;-6.80;93.23;92859.16;5018496;28;20198;-74
2022/01/27 00:51:52;;;;;;;1.07;1.07;;;;;;;-6.66;92.94;92866.88;5018633;28;20606;-75
2022/01/27 00:54:23;;;;;;;1.77;1.77;;;;;;;-6.72;93.28;92856.91;5019757;28;20562;-74
2022/01/27 00:56:55;;;;;;;1.93;1.93;;;;;;;-6.74;92.94;92851.94;5018523;28;20616;-75
2022/01/27 00:59:35;;;;;;;1.67;1.67;;;;;;;-6.57;92.30;92857.28;5018913;28;20610;-75
2022/01/27 01:02:12;;;;;;;1.73;1.73;;;;;;;-6.43;91.76;92857.63;5018987;28;20505;-75
2022/01/27 01:04:43;;;;;;;0.90;0.90;;;;;;;-6.42;90.26;92859.28;5018464;28;20616;-75
2022/01/27 01:07:11;;;;;;;1.87;1.87;;;;;;;-6.56;91.13;92858.94;5018263;28;20190;-75
2022/01/27 01:15:34;;;;;;;1.50;1.50;;;;;;;-7.15;93.33;92848.44;5073208;27;20967;-75
2022/01/27 01:18:16;;;;;;;0.97;0.97;;;;;;;-7.21;93.62;92848.28;5073565;27;20575;-75
2022/01/27 01:20:59;;;;;;;6.60;1.83;;;;;;;-6.98;92.71;92852.94;5073840;27;20594;-75
2022/01/27 01:31:50;;;;;;;1.17;1.17;;;;;;;-6.66;90.01;92857.06;5073677;28;20587;-75
2022/01/27 01:34:20;;;;;;;2.67;2.00;;;;;;;-6.68;90.83;92856.19;5073467;27;20612;-75
2022/01/27 01:36:55;;;;;;;1.30;1.30;;;;;;;-6.66;90.29;92861.97;5073521;27;20577;-75
2022/01/27 01:39:23;;;;;;;0.87;0.87;;;;;;;-6.64;90.42;92862.81;5073348;27;20648;-75
2022/01/27 01:41:51;;;;;;;1.70;1.70;;;;;;;-6.59;89.88;92860.50;5073493;27;20271;-75
2022/01/27 01:44:18;;;;;;;1.60;1.50;;;;;;;-6.57;89.70;92854.81;5073250;27;20595;-75
2022/01/27 01:46:47;;;;;;;1.13;1.13;;;;;;;-6.68;89.25;92848.81;5073650;27;20549;-75
2022/01/27 01:49:15;;;;;;;10.40;2.27;;;;;;;-6.70;89.41;92856.13;5074355;27;20549;-75
2022/01/27 01:51:44;;;;;;;3.27;2.97;;;;;;;-6.70;89.53;92852.84;5073379;27;20249;-75
2022/01/27 01:54:13;;;;;;;2.10;2.10;;;;;;;-6.90;90.16;92849.06;5073193;27;20485;-75
2022/01/27 01:56:42;;;;;;;7.97;2.50;;;;;;;-6.74;89.54;92847.03;5073190;27;20668;-75
2022/01/27 01:59:09;;;;;;;1.53;1.53;;;;;;;-6.62;89.33;92848.97;5073423;27;20592;-75
2022/01/27 02:01:38;;;;;;;4.10;1.93;;;;;;;-6.62;89.65;92826.84;5073504;27;20580;-75
2022/01/27 02:04:09;;;;;;;0.80;0.80;;;;;;;-6.57;89.83;92834.31;5072273;27;20677;-75
2022/01/27 02:06:43;;;;;;;0.93;0.93;;;;;;;-6.45;89.69;92846.91;5072583;27;20460;-75
2022/01/27 02:09:28;;;;;;;1.40;1.40;;;;;;;-6.46;90.62;92835.41;5072563;27;20651;-75
2022/01/27 02:20:12;;;;;;;1.57;1.50;;;;;;;-6.23;89.21;92826.09;5072573;28;20464;-75
2022/01/27 02:22:39;;;;;;;1.47;1.47;;;;;;;-6.32;89.83;92824.28;5072145;27;20592;-75
2022/01/27 02:25:08;;;;;;;2.43;2.33;;;;;;;-6.24;89.17;92830.19;5067945;27;20185;-75
2022/01/27 02:27:36;;;;;;;2.63;2.53;;;;;;;-6.31;88.50;92838.25;5058867;28;20573;-75
2022/01/27 02:30:05;;;;;;;1.57;1.57;;;;;;;-6.48;90.26;92823.13;5058923;28;20625;-75
2022/01/27 02:32:32;;;;;;;3.87;3.70;;;;;;;-6.55;90.89;92815.56;5059309;28;20628;-75
2022/01/27 02:34:59;;;;;;;8.30;1.60;;;;;;;-6.49;91.39;92826.34;5058866;28;20682;-75
2022/01/27 02:37:28;;;;;;;1.37;1.30;;;;;;;-6.54;91.78;92822.97;5058739;28;20475;-75
2022/01/27 02:39:56;;;;;;;3.70;2.47;;;;;;;-6.59;91.44;92826.91;5058754;28;20528;-75
2022/01/27 02:42:30;;;;;;;1.20;1.20;;;;;;;-6.73;91.30;92833.97;5058555;28;20574;-75
2022/01/27 02:45:07;;;;;;;1.23;1.23;;;;;;;-6.79;92.39;92825.63;5058462;28;20624;-75
2022/01/27 02:47:34;;;;;;;1.10;1.10;;;;;;;-6.61;91.46;92838.34;5058432;28;20591;-75
2022/01/27 02:50:01;;;;;;;1.83;1.83;;;;;;;-6.58;90.95;92830.19;5058260;28;20673;-75
2022/01/27 02:52:30;;;;;;;2.00;2.00;;;;;;;-6.84;91.51;92805.03;5057856;28;20553;-75
2022/01/27 02:54:57;;;;;;;7.40;1.37;;;;;;;-6.64;91.48;92823.53;5058254;28;20212;-75
2022/01/27 02:57:25;;;;;;;1.57;1.57;;;;;;;-6.82;91.48;92830.47;5058513;28;20558;-75
2022/01/27 02:59:53;;;;;;;1.10;1.10;;;;;;;-6.86;91.98;92824.63;5058221;28;20265;-75
2022/01/27 03:02:20;;;;;;;2.53;2.33;;;;;;;-6.87;92.05;92824.63;5049004;28;20653;-75
2022/01/27 03:04:47;;;;;;;1.37;1.37;;;;;;;-6.89;92.74;92828.66;5037473;28;20560;-75
2022/01/27 03:07:15;;;;;;;2.20;2.10;;;;;;;-6.89;92.63;92814.75;5037954;28;20678;-75
2022/01/27 03:09:43;;;;;;;1.17;1.17;;;;;;;-6.80;93.42;92817.41;5038001;28;20204;-75
2022/01/27 03:12:12;;;;;;;4.03;1.10;;;;;;;-6.80;93.58;92809.22;5038239;28;20216;-75
2022/01/27 03:14:41;;;;;;;1.20;1.20;;;;;;;-6.70;93.92;92816.84;5037357;28;20710;-75
2022/01/27 03:17:09;;;;;;;2.57;2.47;;;;;;;-6.50;92.96;92814.03;5037963;28;20485;-75
2022/01/27 03:19:37;;;;;;;1.83;1.83;;;;;;;-6.31;92.21;92821.84;5037774;28;20730;-75
2022/01/27 03:22:06;;;;;;;3.70;3.57;;;;;;;-6.18;92.19;92815.59;5038141;28;20482;-75
2022/01/27 03:24:34;;;;;;;1.50;1.50;;;;;;;-6.15;92.15;92815.66;5037550;28;20601;-75
2022/01/27 03:27:06;;;;;;;2.40;2.33;;;;;;;-6.08;91.74;92807.59;5037375;28;20558;-75
2022/01/27 03:29:33;;;;;;;2.90;2.80;;;;;;;-5.93;91.02;92829.25;5037244;28;20561;-75
2022/01/27 03:32:00;;;;;;;1.50;1.50;;;;;;;-5.87;91.33;92819.53;5037693;28;20569;-75
2022/01/27 03:34:27;;;;;;;5.53;2.87;;;;;;;-5.80;91.22;92821.28;5037026;28;20631;-75
2022/01/27 03:36:55;;;;;;;2.87;2.77;;;;;;;-5.77;89.78;92832.81;5035904;28;20581;-75
2022/01/27 03:39:23;;;;;;;5.20;2.17;;;;;;;-5.93;90.40;92817.78;5037142;28;20237;-75
2022/01/27 03:41:51;;;;;;;2.23;2.03;;;;;;;-5.92;90.50;92813.69;5037112;28;20536;-75
2022/01/27 03:44:22;;;;;;;2.60;2.60;;;;;;;-5.93;91.01;92814.50;5037165;28;20521;-75
2022/01/27 03:46:50;;;;;;;2.83;2.73;;;;;;;-5.81;89.77;92826.19;5037094;28;20209;-75
2022/01/27 03:49:17;;;;;;;3.13;3.03;;;;;;;-5.78;89.43;92829.53;5036597;28;20202;-75
2022/01/27 03:51:46;;;;;;;6.20;5.80;;;;;;;-5.79;89.70;92822.09;5044824;28;20617;-75
2022/01/27 03:54:13;;;;;;;2.20;2.07;;;;;;;-5.72;89.00;92831.28;5036471;28;20320;-75
2022/01/27 03:56:40;;;;;;;1.17;1.17;;;;;;;-5.70;89.74;92817.41;5036882;28;20552;-75
2022/01/27 03:59:08;;;;;;;5.03;3.73;;;;;;;-5.81;89.97;92812.25;5037030;28;20189;-75
2022/01/27 04:01:37;;;;;;;2.83;2.60;;;;;;;-5.78;89.27;92819.69;5036270;28;20581;-75
2022/01/27 04:04:04;;;;;;;3.40;3.30;;;;;;;-5.91;90.22;92823.53;5036780;28;20613;-75
2022/01/27 04:06:37;;;;;;;3.53;3.23;;;;;;;-6.14;90.98;92812.38;5036596;28;20525;-75
2022/01/27 04:09:06;;;;;;;2.40;2.40;;;;;;;-6.06;91.56;92829.78;5036683;28;20547;-75
2022/01/27 04:11:34;;;;;;;1.60;1.60;;;;;;;-5.98;90.45;92830.78;5036139;28;20636;-75
2022/01/27 04:14:01;;;;;;;1.80;1.77;;;;;;;-5.93;90.16;92825.16;5036164;28;20233;-75
2022/01/27 04:16:28;;;;;;;1.67;1.67;;;;;;;-6.13;91.33;92813.22;5036008;28;20557;-75
2022/01/27 04:18:57;;;;;;;2.00;2.00;;;;;;;-5.89;90.50;92834.25;5044678;28;20489;-75
2022/01/27 04:21:24;;;;;;;5.40;5.13;;;;;;;-5.82;89.90;92829.44;5039207;28;20585;-75
2022/01/27 04:23:52;;;;;;;3.00;2.90;;;;;;;-5.78;89.46;92834.44;5036210;28;20577;-75
2022/01/27 04:26:25;;;;;;;2.80;2.70;;;;;;;-5.75;88.82;92836.16;5036359;28;20521;-75
2022/01/27 04:28:53;;;;;;;12.07;2.43;;;;;;;-5.76;89.06;92852.53;5035568;28;20522;-75
2022/01/27 04:31:22;;;;;;;1.23;1.23;;;;;;;-5.93;90.22;92836.63;5036045;28;20498;-75
2022/01/27 04:33:49;;;;;;;2.40;2.40;;;;;;;-6.09;91.52;92835.47;5035962;28;20197;-75
2022/01/27 04:36:23;;;;;;;1.67;1.53;;;;;;;-6.23;92.51;92824.47;5035689;28;20529;-75
2022/01/27 04:38:56;;;;;;;3.27;3.17;;;;;;;-6.04;91.87;92842.94;5035917;28;20654;-75
2022/01/27 04:41:31;;;;;;;4.20;3.63;;;;;;;-5.97;91.40;92852.91;5035665;28;20590;-75
2022/01/27 04:44:05;;;;;;;3.13;2.90;;;;;;;-5.88;91.01;92854.75;5035852;28;20465;-75
2022/01/27 04:46:37;;;;;;;4.20;3.90;;;;;;;-5.77;90.26;92862.34;5035655;28;20193;-74
2022/01/27 04:49:07;;;;;;;4.67;4.47;;;;;;;-5.99;91.10;92820.13;5035830;28;20557;-75
2022/01/27 04:51:36;;;;;;;3.83;3.33;;;;;;;-5.91;92.03;92848.13;5035834;28;20578;-75
2022/01/27 04:54:08;;;;;;;5.23;4.93;;;;;;;-5.79;91.33;92856.53;5035955;28;20582;-75
2022/01/27 04:56:38;;;;;;;5.20;4.63;;;;;;;-5.68;91.08;92865.81;5035700;28;20466;-75
2022/01/27 04:59:12;;;;;;;5.13;4.93;;;;;;;-5.70;90.76;92857.59;5035535;28;20647;-75
2022/01/27 05:01:43;;;;;;;6.37;5.97;;;;;;;-5.80;91.41;92860.63;5035201;28;20683;-75
2022/01/27 05:04:13;;;;;;;10.30;6.03;;;;;;;-5.66;90.57;92865.84;5036242;28;20563;-75
2022/01/27 05:06:42;;;;;;;3.97;3.80;;;;;;;-5.78;91.36;92868.88;5037126;28;20630;-75
2022/01/27 05:09:10;;;;;;;3.17;3.03;;;;;;;-5.99;91.85;92859.47;5036181;28;20570;-75
2022/01/27 05:11:44;;;;;;;3.47;2.97;;;;;;;-5.94;92.40;92870.22;5035479;28;20601;-75
2022/01/27 05:14:15;;;;;;;5.40;4.17;;;;;;;-5.76;91.78;92881.22;5035361;28;20217;-75
2022/01/27 05:16:43;;;;;;;5.23;5.03;;;;;;;-5.82;91.58;92866.34;5034882;28;20617;-75
2022/01/27 05:19:11;;;;;;;4.83;4.53;;;;;;;-5.98;92.37;92863.56;5034897;28;20635;-75
2022/01/27 05:21:38;;;;;;;6.87;6.33;;;;;;;-6.21;92.79;92820.44;5035182;28;20596;-75
2022/01/27 05:24:08;;;;;;;7.43;6.87;;;;;;;-5.89;93.46;92858.00;5034868;28;20585;-75
2022/01/27 05:26:36;;;;;;;4.67;4.37;;;;;;;-5.73;93.29;92854.22;5035770;28;20598;-73
2022/01/27 05:29:04;;;;;;;3.53;3.43;;;;;;;-5.52;92.92;92871.91;5036450;28;20581;-74
2022/01/27 05:31:31;;;;;;;3.87;3.77;;;;;;;-5.37;90.82;92869.75;5041520;28;20610;-74
2022/01/27 05:33:58;;;;;;;4.83;4.30;;;;;;;-5.27;89.64;92861.75;5037166;28;20655;-77
2022/01/27 05:36:26;;;;;;;4.43;4.13;;;;;;;-5.25;89.87;92860.16;5039960;28;20289;-77
2022/01/27 05:38:53;;;;;;;4.67;4.37;;;;;;;-5.25;90.26;92861.78;5037614;28;20537;-77
2022/01/27 05:41:22;;;;;;;12.80;10.73;;;;;;;-5.19;90.33;92859.44;5037536;28;20491;-76
2022/01/27 05:43:50;;;;;;;6.47;6.27;;;;;;;-5.15;89.96;92875.91;5037597;28;20493;-77
2022/01/27 05:46:17;;;;;;;7.27;6.63;;;;;;;-5.22;90.12;92882.34;5036219;28;20567;-75
2022/01/27 05:48:44;;;;;;;14.93;10.17;;;;;;;-5.22;90.66;92876.59;5039905;28;20570;-76
2022/01/27 05:51:13;;;;;;;10.23;9.43;;;;;;;-5.19;90.42;92879.13;5037322;28;20640;-77
2022/01/27 05:53:40;;;;;;;5.50;5.10;;;;;;;-5.33;89.45;92864.06;5037560;28;20509;-77
2022/01/27 05:56:07;;;;;;;6.70;6.43;;;;;;;-5.28;88.35;92877.31;5036047;28;20574;-76
2022/01/27 05:58:36;;;;;;;8.27;7.50;;;;;;;-5.12;87.29;92911.28;5039734;28;20535;-74
2022/01/27 06:01:03;;;;;;;14.00;12.17;;;;;;;-5.15;87.11;92920.25;5038203;28;20562;-76
2022/01/27 06:03:31;;;;;;;8.03;7.53;;;;;;;-5.18;86.45;92918.53;5041237;28;20631;-75
2022/01/27 06:05:58;;;;;;;7.90;7.13;;;;;;;-5.32;87.92;92907.59;5040643;28;20551;-75
2022/01/27 06:08:28;;;;;;;6.30;5.87;;;;;;;-5.51;89.55;92900.63;5043938;28;20206;-73
2022/01/27 06:10:55;;;;;;;3.10;3.00;;;;;;;-5.50;90.29;92894.91;5040987;28;20198;-73
2022/01/27 06:13:23;;;;;;;7.30;6.60;;;;;;;-5.34;90.50;92899.34;5047299;28;20586;-75
2022/01/27 06:15:51;;;;;;;5.40;5.20;;;;;;;-5.45;90.90;92868.75;5039900;28;20698;-75
2022/01/27 06:18:19;;;;;;;7.10;6.40;;;;;;;-5.45;90.80;92878.59;5036980;28;20590;-75
2022/01/27 06:20:46;;;;;;;6.37;6.00;;;;;;;-5.49;90.67;92872.78;5041058;28;20601;-75
2022/01/27 06:23:14;;;;;;;6.20;5.90;;;;;;;-5.40;90.11;92873.75;5040920;28;20613;-76
2022/01/27 06:25:41;;;;;;;6.07;5.27;;;;;;;-5.30;90.30;92871.53;5042491;28;20197;-75
2022/01/27 06:28:09;;;;;;;7.77;7.33;;;;;;;-5.03;90.07;92899.16;5045107;28;20558;-76
2022/01/27 06:30:36;;;;;;;21.40;11.97;;;;;;;-5.09;89.78;92903.97;5040420;28;20496;-75
2022/01/27 06:33:05;;;;;;;11.77;10.70;;;;;;;-5.04;89.37;92891.72;5040158;28;20591;-74
2022/01/27 06:35:32;;;;;;;8.83;8.37;;;;;;;-5.23;90.27;92858.53;5038336;28;20623;-75
2022/01/27 06:38:00;;;;;;;13.17;12.23;;;;;;;-5.21;89.97;92888.13;5037500;28;20603;-74
2022/01/27 06:40:28;;;;;;;8.20;5.27;;;;;;;-5.04;89.71;92895.03;5040437;28;20650;-75
2022/01/27 06:42:55;;;;;;;6.97;6.63;;;;;;;-4.97;89.67;92900.06;5040343;28;20623;-75
2022/01/27 06:45:22;;;;;;;15.03;13.43;;;;;;;-4.92;88.71;92925.63;5040626;28;20549;-75
2022/01/27 06:47:50;;;;;;;7.30;6.60;;;;;;;-5.02;87.79;92920.53;5038249;28;20497;-76
2022/01/27 06:50:18;;;;;;;9.17;8.70;;;;;;;-5.05;86.70;92924.53;5038320;28;20666;-74
2022/01/27 06:52:46;;;;;;;9.37;8.87;;;;;;;-5.04;86.66;92931.13;5037035;28;20499;-74
2022/01/27 06:55:17;;;;;;;5.17;4.87;;;;;;;-5.01;85.62;92939.41;5040236;28;20694;-76
2022/01/27 06:57:45;;;;;;;6.83;6.23;;;;;;;-4.97;85.66;92934.56;5040302;28;20577;-75
2022/01/27 07:00:13;;;;;;;2.30;2.27;;;;;;;-4.95;86.13;92920.63;5039660;28;20256;-76
2022/01/27 07:02:40;;;;;;;2.80;2.70;;;;;;;-5.02;86.09;92908.22;5042106;28;20469;-76
2022/01/27 07:05:08;;;;;;;2.50;2.50;;;;;;;-4.87;84.97;92933.94;5037526;28;20586;-76
2022/01/27 07:07:37;;;;;;;2.30;2.30;;;;;;;-4.80;82.60;92950.50;5045179;28;20478;-74
2022/01/27 07:10:05;;;;;;;2.43;2.23;;;;;;;-4.98;83.11;92920.56;5041809;28;20640;-74
2022/01/27 07:12:32;;;;;;;3.33;3.17;;;;;;;-4.71;83.99;92943.28;5041352;28;20532;-74
2022/01/27 07:14:59;;;;;;;5.07;4.80;;;;;;;-4.55;83.16;92951.78;5042959;28;20256;-73
2022/01/27 07:17:28;;;;;;;4.17;3.97;;;;;;;-4.65;82.63;92951.63;5037308;28;20250;-74
2022/01/27 07:19:55;;;;;;;2.63;2.53;;;;;;;-4.56;82.40;92946.00;5036992;28;20503;-74
2022/01/27 07:22:22;;;;;;;5.90;5.37;;;;;;;-4.48;83.16;92934.66;5036608;28;20612;-76
2022/01/27 07:24:51;;;;;;;3.70;3.60;;;;;;;-4.66;82.72;92908.06;5040458;28;20221;-73
2022/01/27 07:27:19;;;;;;;6.23;5.60;;;;;;;-4.49;82.73;92935.47;5037035;28;20213;-74
2022/01/27 07:29:47;;;;;;;2.87;2.83;;;;;;;-4.54;82.52;92916.47;5036394;28;20198;-75
2022/01/27 07:32:14;;;;;;;4.30;4.20;;;;;;;-4.43;82.67;92947.91;5043605;28;20571;-75
2022/01/27 07:34:41;;;;;;;5.03;4.00;;;;;;;-4.51;82.71;92933.78;5038113;28;20455;-75
2022/01/27 07:37:08;;;;;;;1.87;1.87;;;;;;;-4.65;82.54;92911.34;5047175;28;20597;-75
2022/01/27 07:39:36;;;;;;;3.23;3.13;;;;;;;-4.38;82.17;92951.28;5046344;28;20528;-75
2022/01/27 07:42:05;;;;;;;4.30;3.93;;;;;;;-4.67;82.21;92943.34;5047412;28;20661;-75
2022/01/27 07:44:33;;;;;;;2.30;2.23;;;;;;;-4.70;83.59;92922.75;5046533;28;20490;-76
2022/01/27 07:47:00;;;;;;;5.33;3.87;;;;;;;-4.65;82.92;92939.28;5047290;28;20493;-76
2022/01/27 07:49:30;;;;;;;2.80;2.70;;;;;;;-4.46;82.58;92964.28;5043389;27;20215;-77
2022/01/27 07:51:57;;;;;;;2.87;2.83;;;;;;;-4.58;83.43;92940.25;5046636;28;20220;-75
2022/01/27 07:54:24;;;;;;;10.13;9.43;;;;;;;-4.43;82.90;92950.38;5038157;28;20607;-75
2022/01/27 07:56:51;;;;;;;4.37;4.07;;;;;;;-4.25;83.67;92957.25;5049230;28;20675;-73
2022/01/27 07:59:22;;;;;;;4.53;4.37;;;;;;;-4.10;83.18;92967.38;5040322;28;20543;-74
2022/01/27 08:01:49;;;;;;;3.43;3.33;;;;;;;-3.96;82.30;92970.94;5043327;28;20194;-74
2022/01/27 08:04:16;;;;;;;4.03;3.93;;;;;;;-3.84;80.64;92977.72;5049139;28;20574;-74
2022/01/27 08:06:44;;;;;;;3.60;3.50;;;;;;;-3.81;80.40;92972.81;5042667;28;20199;-75
2022/01/27 08:09:11;;;;;;;5.57;4.90;;;;;;;-3.65;79.47;92983.75;5043773;28;20263;-74
2022/01/27 08:11:38;;;;;;;6.83;6.43;;;;;;;-3.57;81.17;92968.25;5045669;28;20276;-74
2022/01/27 08:14:05;;;;;;;3.73;3.63;;;;;;;-3.49;80.52;92973.28;5047500;28;20583;-74
2022/01/27 08:16:33;;;;;;;5.67;5.37;;;;;;;-3.50;79.89;92974.13;5045006;28;20230;-75
2022/01/27 08:19:01;;;;;;;3.23;3.13;;;;;;;-3.49;79.72;92963.41;5045422;28;20599;-74
2022/01/27 08:21:28;;;;;;;5.33;4.40;;;;;;;-3.39;79.77;92966.06;5046869;28;20545;-75
2022/01/27 08:23:56;;;;;;;4.70;4.37;;;;;;;-3.43;80.08;92949.53;5044962;28;20613;-74
2022/01/27 08:26:33;;;;;;;4.20;4.07;;;;;;;-3.33;81.34;92943.09;5047132;28;20503;-75
2022/01/27 08:29:10;;;;;;;3.70;3.47;;;;;;;-3.19;80.30;92958.94;5047875;28;20307;-75
2022/01/27 08:31:54;;;;;;;4.33;4.07;;;;;;;-3.04;79.47;92959.13;5045671;28;20498;-75
2022/01/27 08:34:29;;;;;;;14.43;4.83;;;;;;;-2.89;79.31;92965.09;5046686;28;20565;-74
2022/01/27 08:36:56;;;;;;;5.50;5.27;;;;;;;-2.80;78.14;92972.59;5042789;28;20566;-75
2022/01/27 08:39:24;;;;;;;5.13;4.63;;;;;;;-2.86;77.90;92963.47;5044697;28;20529;-76
2022/01/27 08:41:51;;;;;;;4.87;4.40;;;;;;;-2.66;77.09;92978.56;5044307;28;20559;-77
2022/01/27 08:44:19;;;;;;;3.37;3.27;;;;;;;-2.69;76.82;92973.56;5044900;28;20228;-75
2022/01/27 08:46:48;;;;;;;1.90;1.90;;;;;;;-2.58;75.41;92994.31;5046655;28;20273;-74
2022/01/27 08:49:17;;;;;;;3.00;2.83;;;;;;;-2.65;75.03;92978.56;5049660;28;20208;-74
2022/01/27 08:51:44;;;;;;;2.93;2.73;;;;;;;-2.69;74.86;92984.28;5045104;28;20564;-72
2022/01/27 08:54:11;;;;;;;2.47;2.33;;;;;;;-2.71;75.06;92982.63;5042412;28;20577;-72
2022/01/27 08:56:38;;;;;;;2.77;2.67;;;;;;;-2.65;74.29;92982.69;5036193;28;20632;-73
2022/01/27 08:59:06;;;;;;;3.73;3.53;;;;;;;-2.60;73.62;92991.84;5036786;28;20553;-73
2022/01/27 09:01:33;;;;;;;3.33;3.07;;;;;;;-2.57;74.41;92986.06;5036461;28;20645;-73
2022/01/27 09:04:02;;;;;;;4.27;4.03;;;;;;;-2.52;74.35;92982.84;5033166;28;20447;-73
2022/01/27 09:06:29;;;;;;;3.43;3.33;;;;;;;-2.44;73.06;92997.78;5034371;28;20577;-74
2022/01/27 09:08:58;;;;;;;2.73;2.67;;;;;;;-2.38;72.86;92997.84;5048876;27;20647;-75
2022/01/27 09:11:28;;;;;;;10.87;5.60;;;;;;;-2.29;72.02;92988.06;5036279;28;20566;-74
2022/01/27 09:13:55;;;;;;;8.17;5.73;;;;;;;-2.17;71.88;92997.25;5036287;28;20616;-76
2022/01/27 09:16:25;;;;;;;9.03;7.07;;;;;;;-2.20;71.94;92997.22;5037732;28;20635;-75
2022/01/27 09:18:53;;;;;;;3.93;3.63;;;;;;;-2.04;72.06;92995.75;5042021;28;20558;-72
2022/01/27 09:21:27;;;;;;;6.00;5.80;;;;;;;-1.86;71.88;92989.31;5043475;28;20558;-75
2022/01/27 09:23:57;;;;;;;7.60;7.10;;;;;;;-1.85;71.33;92988.50;5045983;28;20227;-72
2022/01/27 09:26:41;;;;;;;5.00;4.37;;;;;;;-1.67;69.95;92991.13;5044950;28;20561;-71
2022/01/27 09:29:09;;;;;;;8.90;8.13;;;;;;;-1.39;70.36;92992.19;5035792;28;20866;-72
2022/01/27 09:31:37;;;;;;;9.73;6.53;;;;;;;-1.20;69.05;92982.41;5045466;28;20610;-74
2022/01/27 09:34:04;;;;;;;8.97;8.37;;;;;;;-0.93;68.93;92980.94;5045595;28;20690;-74
2022/01/27 09:36:33;;;;;;;6.57;6.10;;;;;;;-0.75;69.31;92992.63;5039773;28;20637;-74
2022/01/27 09:39:00;;;;;;;7.70;6.83;;;;;;;-0.72;67.95;92987.66;5049604;28;20548;-74
2022/01/27 09:41:28;;;;;;;6.37;6.07;;;;;;;-0.67;67.26;92997.59;5050877;28;20197;-73
2022/01/27 09:43:55;;;;;;;11.43;7.80;;;;;;;-0.62;67.01;92994.31;5047938;28;20604;-73
2022/01/27 09:46:25;;;;;;;7.67;7.10;;;;;;;-0.50;66.95;92984.44;5048837;28;20220;-73
2022/01/27 09:48:54;;;;;;;9.30;7.40;;;;;;;-0.37;67.88;92967.13;5047396;28;20656;-73
2022/01/27 09:51:37;;;;;;;9.50;8.43;;;;;;;-0.22;66.88;92959.72;5049197;28;20208;-73
2022/01/27 09:54:08;;;;;;;25.13;16.03;;;;;;;-0.01;65.72;92973.06;5047516;28;20611;-74
2022/01/27 09:56:36;;;;;;;33.83;22.50;;;;;;;0.12;65.80;92973.88;5050022;28;20557;-74
2022/01/27 09:59:04;;;;;;;23.83;18.07;;;;;;;0.26;66.51;92966.47;5049154;28;20520;-73
2022/01/27 10:01:31;;;;;;;17.43;15.77;;;;;;;0.20;65.68;92939.13;5045637;28;20717;-74
2022/01/27 10:04:03;;;;;;;34.00;16.33;;;;;;;0.43;65.02;92964.84;5047228;28;20197;-74
2022/01/27 10:06:32;;;;;;;25.57;15.30;;;;;;;0.46;64.64;92962.34;5043906;28;20517;-74
2022/01/27 10:09:14;;;;;;;25.00;14.27;;;;;;;0.46;65.80;92936.66;5045246;28;20613;-75
2022/01/27 10:11:43;;;;;;;14.00;11.27;;;;;;;0.32;65.92;92932.53;5045267;28;20561;-74
2022/01/27 10:14:21;;;;;;;13.57;10.10;;;;;;;0.37;66.16;92940.81;5047312;28;20226;-74
2022/01/27 10:16:52;;;;;;;19.77;10.60;;;;;;;0.54;67.13;92928.38;5039926;28;20566;-73
2022/01/27 10:19:19;;;;;;;17.97;14.27;;;;;;;0.66;65.51;92945.78;5042704;28;20674;-73
2022/01/27 10:21:47;;;;;;;32.37;17.40;;;;;;;0.81;64.31;92958.19;5048758;28;20689;-73
2022/01/27 10:24:21;;;;;;;26.03;17.67;;;;;;;0.91;65.61;92933.28;5046661;28;20211;-73
2022/01/27 10:26:54;;;;;;;32.90;16.03;;;;;;;1.02;65.48;92934.09;5037558;28;20571;-72
2022/01/27 10:29:36;;;;;;;16.07;11.07;;;;;;;1.17;64.96;92924.13;5046269;28;20566;-73
2022/01/27 10:32:06;;;;;;;23.73;14.03;;;;;;;1.24;63.26;92936.53;5044782;28;20473;-73
2022/01/27 10:34:54;;;;;;;22.93;14.00;;;;;;;1.44;63.92;92923.22;5048623;28;20317;-73
2022/01/27 10:37:22;;;;;;;13.80;10.77;;;;;;;1.58;63.30;92937.25;5048901;28;20605;-74
2022/01/27 10:39:50;;;;;;;21.60;13.37;;;;;;;1.73;62.11;92936.38;5046537;28;20580;-72
2022/01/27 10:42:21;;;;;;;34.90;16.17;;;;;;;1.98;62.49;92927.91;5046758;28;20522;-73
2022/01/27 10:44:55;;;;;;;44.00;20.30;;;;;;;2.26;61.23;92928.56;5045977;28;20230;-73
2022/01/27 10:47:29;;;;;;;51.23;28.83;;;;;;;2.22;60.32;92941.06;5045053;28;20564;-74
2022/01/27 10:50:00;;;;;;;37.93;22.50;;;;;;;2.19;60.44;92924.50;5046736;28;20589;-72
2022/01/27 10:52:36;;;;;;;34.03;19.30;;;;;;;2.22;60.61;92921.13;5046568;27;20612;-73
2022/01/27 10:55:09;;;;;;;23.30;14.37;;;;;;;2.28;59.96;92926.91;5046466;28;20576;-74
2022/01/27 10:57:37;;;;;;;21.10;11.30;;;;;;;2.39;60.30;92914.38;5048719;28;20566;-74
2022/01/27 11:00:10;;;;;;;6.07;5.47;;;;;;;2.54;59.41;92925.88;5045436;28;20601;-73
2022/01/27 11:02:49;;;;;;;3.43;3.33;;;;;;;2.52;58.56;92918.44;5044851;28;20483;-74
2022/01/27 11:05:20;;;;;;;4.10;3.77;;;;;;;2.55;58.63;92908.41;5046461;28;20624;-74
2022/01/27 11:07:47;;;;;;;5.77;5.30;;;;;;;2.73;58.47;92922.41;5042243;28;20481;-73
2022/01/27 11:10:18;;;;;;;1.20;1.20;;;;;;;2.35;58.27;92905.28;5048574;28;20229;-74
2022/01/27 11:12:46;;;;;;;1.80;1.70;;;;;;;2.33;58.62;92900.28;5047675;28;20554;-74
2022/01/27 11:15:14;;;;;;;1.63;1.53;;;;;;;2.46;59.35;92896.03;5050795;28;20551;-74
2022/01/27 11:17:42;;;;;;;2.20;2.10;;;;;;;2.46;58.13;92901.84;5048715;28;20507;-74
2022/01/27 11:20:26;;;;;;;6.63;3.83;;;;;;;2.40;59.47;92858.69;5047918;28;20552;-76
2022/01/27 11:23:22;;;;;;;6.40;2.80;;;;;;;2.63;59.23;92889.25;5046644;28;20511;-75
2022/01/27 11:25:51;;;;;;;2.90;2.70;;;;;;;2.63;60.06;92856.81;5044566;28;20540;-74
2022/01/27 11:28:20;;;;;;;2.93;2.73;;;;;;;2.75;58.64;92889.13;5035558;28;20628;-75
2022/01/27 11:30:59;;;;;;;4.80;4.00;;;;;;;2.60;58.63;92889.25;5041754;28;20224;-75
2022/01/27 11:33:31;;;;;;;5.10;3.17;;;;;;;2.46;58.99;92886.91;5048621;28;20200;-74
2022/01/27 11:36:22;;;;;;;3.80;3.50;;;;;;;2.31;59.62;92882.00;5052618;28;20588;-73
2022/01/27 11:38:49;;;;;;;5.33;4.77;;;;;;;2.23;60.45;92865.47;5043319;28;20502;-73
2022/01/27 11:41:44;;;;;;;2.27;2.13;;;;;;;2.32;60.37;92870.38;5048074;28;20498;-73
2022/01/27 11:44:32;;;;;;;2.08;1.98;;;;;;;2.20;60.30;92861.31;5043200;28;20440;-72
2022/01/27 11:47:19;;;;;;;1.53;1.43;;;;;;;2.17;60.36;92873.00;5043509;28;20561;-73
2022/01/27 11:49:56;;;;;;;2.90;2.60;;;;;;;2.07;60.76;92860.63;5039102;28;20588;-73
2022/01/27 11:52:27;;;;;;;4.37;4.17;;;;;;;2.16;62.86;92846.41;5045373;28;20554;-73
2022/01/27 11:54:57;;;;;;;3.80;3.30;;;;;;;2.13;62.52;92837.31;5046763;28;20452;-74
2022/01/27 11:57:44;;;;;;;4.33;3.50;;;;;;;2.23;61.12;92862.97;5047366;28;20224;-73
2022/01/27 12:00:17;;;;;;;4.03;3.77;;;;;;;2.16;61.88;92828.97;5046410;28;20513;-75
2022/01/27 12:03:10;;;;;;;3.37;2.97;;;;;;;2.22;60.83;92861.31;5055940;28;20588;-76
2022/01/27 12:05:39;;;;;;;4.33;3.20;;;;;;;2.15;62.06;92838.09;5038180;28;20627;-74
2022/01/27 12:08:25;;;;;;;40.40;13.50;;;;;;;2.20;63.13;92833.13;5036247;28;20482;-74